Time;durP1;ratioP1;P1;durP2;ratioP2;P2;SDS_P1;SDS_P2;PMS_P1;PMS_P2;Temp;Humidity;BMP_temperature;BMP_pressure;BME280_temperature;BME280_humidity;BME280_pressure;Samples;Min_cycle;Max_cycle;Signal;HPM_P1;HPM_P2
2021/09/09 00:00:12;;;;;;;21.80;13.15;;;;;;;12.77;93.51;95368.31;5026575;28;20091;-74
2021/09/09 00:02:58;;;;;;;20.88;13.27;;;;;;;12.56;93.77;95374.94;5029018;28;20111;-73
2021/09/09 00:05:23;;;;;;;23.25;13.52;;;;;;;12.46;94.45;95375.88;5029689;28;20454;-74
2021/09/09 00:07:49;;;;;;;20.20;13.23;;;;;;;12.64;93.81;95372.47;5030693;28;20041;-73
2021/09/09 00:10:14;;;;;;;22.55;13.77;;;;;;;12.63;94.01;95376.16;5026712;28;20049;-72
2021/09/09 00:12:41;;;;;;;25.45;13.98;;;;;;;12.43;94.40;95371.16;5011374;28;20049;-73
2021/09/09 00:15:07;;;;;;;21.52;13.05;;;;;;;12.54;93.72;95367.31;5027677;28;20061;-74
2021/09/09 00:17:33;;;;;;;28.75;13.98;;;;;;;12.32;94.79;95369.72;5029359;28;20049;-72
2021/09/09 00:19:58;;;;;;;20.73;13.32;;;;;;;12.37;95.17;95374.91;5024659;28;20048;-74
2021/09/09 00:22:24;;;;;;;21.80;13.20;;;;;;;12.40;94.27;95371.72;5026499;28;20952;-73
2021/09/09 00:24:49;;;;;;;21.65;13.35;;;;;;;12.27;95.53;95371.34;5030458;28;20491;-74
2021/09/09 00:27:15;;;;;;;22.80;13.77;;;;;;;12.39;95.43;95375.44;5004579;28;20404;-72
2021/09/09 00:29:41;;;;;;;27.20;13.38;;;;;;;12.52;93.75;95369.44;5028164;28;20049;-73
2021/09/09 00:32:06;;;;;;;21.88;13.55;;;;;;;12.43;94.05;95365.88;5028860;28;20041;-72
2021/09/09 00:34:32;;;;;;;20.63;12.40;;;;;;;12.36;94.28;95381.28;5027410;28;20265;-73
2021/09/09 00:36:57;;;;;;;22.08;13.40;;;;;;;12.39;94.09;95378.06;5028702;28;20503;-73
2021/09/09 00:39:23;;;;;;;22.58;13.18;;;;;;;12.25;94.65;95376.09;5021312;28;20497;-74
2021/09/09 00:41:49;;;;;;;22.05;13.45;;;;;;;12.27;94.44;95373.97;5018376;28;20041;-72
2021/09/09 00:44:26;;;;;;;22.25;13.25;;;;;;;12.18;94.69;95375.66;5027707;28;20422;-73
2021/09/09 00:47:07;;;;;;;25.05;13.50;;;;;;;12.12;95.25;95371.53;5028311;28;20046;-73
2021/09/09 00:49:35;;;;;;;21.83;13.15;;;;;;;12.17;95.20;95373.31;5012354;28;20060;-74
2021/09/09 00:52:01;;;;;;;22.02;12.98;;;;;;;12.11;95.25;95375.22;5028173;28;20052;-74
2021/09/09 00:54:27;;;;;;;26.45;14.15;;;;;;;12.21;95.24;95375.13;5019469;28;20415;-73
2021/09/09 00:56:53;;;;;;;19.95;12.77;;;;;;;12.31;94.26;95374.19;5029914;28;20053;-74
2021/09/09 00:59:19;;;;;;;22.67;13.02;;;;;;;12.27;93.84;95368.72;5010229;28;20041;-73
2021/09/09 01:01:45;;;;;;;23.70;13.95;;;;;;;12.20;94.12;95378.81;5017933;28;20042;-74
2021/09/09 01:04:11;;;;;;;22.70;12.70;;;;;;;12.15;94.28;95381.50;5027930;28;20107;-74
2021/09/09 01:06:37;;;;;;;22.17;13.23;;;;;;;12.17;94.08;95368.84;5025723;28;20550;-72
2021/09/09 01:09:03;;;;;;;21.58;13.10;;;;;;;12.07;93.83;95371.59;5022312;28;20699;-74
2021/09/09 01:11:28;;;;;;;22.20;12.75;;;;;;;11.91;94.50;95363.81;5025769;28;20033;-72
2021/09/09 01:14:14;;;;;;;20.20;12.50;;;;;;;12.09;94.25;95369.47;5030130;28;20069;-72
2021/09/09 01:16:41;;;;;;;22.73;13.00;;;;;;;12.11;94.25;95375.22;5029038;28;20046;-73
2021/09/09 01:19:08;;;;;;;25.05;13.23;;;;;;;12.03;94.61;95373.22;5010805;28;20053;-72
2021/09/09 01:21:34;;;;;;;22.55;13.45;;;;;;;11.91;95.12;95377.00;5018354;28;20044;-74
2021/09/09 01:24:00;;;;;;;21.63;12.88;;;;;;;11.90;95.11;95380.72;5003093;28;20049;-73
2021/09/09 01:26:28;;;;;;;21.25;13.15;;;;;;;12.00;95.04;95379.06;5029053;28;20418;-74
2021/09/09 01:28:58;;;;;;;22.92;13.20;;;;;;;11.92;95.15;95383.88;5027622;28;20038;-74
2021/09/09 01:31:24;;;;;;;21.42;12.93;;;;;;;11.85;95.03;95382.59;5025523;28;20045;-74
2021/09/09 01:33:56;;;;;;;21.63;12.90;;;;;;;11.86;95.90;95384.19;5028461;28;20045;-74
2021/09/09 01:36:23;;;;;;;21.95;12.55;;;;;;;11.74;95.90;95381.94;5028178;28;20037;-74
2021/09/09 01:38:48;;;;;;;25.63;12.63;;;;;;;11.69;95.88;95384.63;5026354;28;20092;-74
2021/09/09 01:41:14;;;;;;;22.92;12.98;;;;;;;11.64;95.72;95382.03;5024473;28;20038;-73
2021/09/09 01:43:39;;;;;;;25.55;13.80;;;;;;;11.54;97.27;95388.97;5025960;28;20045;-73
2021/09/09 01:46:05;;;;;;;23.05;12.98;;;;;;;11.58;96.63;95390.00;5029640;28;20041;-74
2021/09/09 01:48:31;;;;;;;23.00;13.85;;;;;;;11.56;96.88;95381.56;5023148;28;20116;-73
2021/09/09 01:50:57;;;;;;;21.42;13.30;;;;;;;11.59;96.42;95386.31;5001539;28;20041;-73
2021/09/09 01:53:22;;;;;;;21.92;12.60;;;;;;;11.69;95.53;95384.63;5017155;28;20415;-73
2021/09/09 01:55:48;;;;;;;20.25;12.80;;;;;;;11.67;95.76;95384.13;5018203;28;20037;-73
2021/09/09 01:58:13;;;;;;;20.67;12.80;;;;;;;11.46;96.16;95381.66;5027156;28;20041;-74
2021/09/09 02:00:39;;;;;;;20.27;12.88;;;;;;;11.56;96.36;95376.28;5023995;28;20060;-74
2021/09/09 02:03:05;;;;;;;21.92;12.73;;;;;;;11.54;96.03;95378.44;4999872;28;20045;-73
2021/09/09 02:05:30;;;;;;;23.05;13.32;;;;;;;11.54;96.43;95367.91;5025099;28;20060;-72
2021/09/09 02:07:56;;;;;;;20.90;12.27;;;;;;;11.44;96.41;95383.81;5026122;28;20495;-73
2021/09/09 02:10:21;;;;;;;22.50;12.77;;;;;;;11.65;95.53;95378.34;5019925;28;20560;-73
2021/09/09 02:12:48;;;;;;;20.80;12.68;;;;;;;11.61;95.80;95373.63;5012113;28;20068;-73
2021/09/09 02:15:13;;;;;;;20.95;12.30;;;;;;;11.43;96.61;95382.22;5009897;28;20048;-73
2021/09/09 02:17:39;;;;;;;23.23;13.02;;;;;;;11.45;96.28;95380.13;5027750;28;20050;-74
2021/09/09 02:20:06;;;;;;;23.80;12.50;;;;;;;11.53;97.00;95382.13;5014313;28;20053;-73
2021/09/09 02:22:32;;;;;;;21.02;13.05;;;;;;;11.55;96.87;95384.47;5023591;28;20065;-73
2021/09/09 02:24:58;;;;;;;20.85;12.77;;;;;;;11.61;96.42;95378.88;5017694;28;20088;-74
2021/09/09 02:27:24;;;;;;;23.58;13.13;;;;;;;11.63;96.31;95383.09;5028787;28;20081;-72
2021/09/09 02:29:50;;;;;;;20.00;12.35;;;;;;;11.58;96.15;95384.72;5018993;28;20069;-74
2021/09/09 02:32:15;;;;;;;19.35;12.10;;;;;;;11.48;96.87;95384.81;5026657;28;20120;-74
2021/09/09 02:34:41;;;;;;;21.08;12.35;;;;;;;11.50;96.57;95387.97;5025078;28;20503;-73
2021/09/09 02:37:06;;;;;;;20.67;12.48;;;;;;;11.52;96.83;95385.84;5028511;28;20588;-73
2021/09/09 02:39:32;;;;;;;21.15;12.30;;;;;;;11.56;96.77;95386.84;5026353;28;20427;-73
2021/09/09 02:41:58;;;;;;;19.88;12.30;;;;;;;11.52;96.29;95385.84;5021153;28;20392;-72
2021/09/09 02:44:24;;;;;;;22.67;12.25;;;;;;;11.42;96.56;95380.66;5025481;28;20511;-72
2021/09/09 02:46:49;;;;;;;22.55;12.65;;;;;;;11.43;97.55;95382.22;5021120;28;20048;-72
2021/09/09 02:49:15;;;;;;;20.02;12.65;;;;;;;11.37;97.79;95378.06;5013047;28;20503;-71
2021/09/09 02:51:40;;;;;;;20.73;12.23;;;;;;;11.31;98.42;95371.28;5021523;28;20042;-77
2021/09/09 02:54:06;;;;;;;27.40;13.60;;;;;;;11.43;98.12;95377.75;5016824;28;20038;-75
2021/09/09 02:56:32;;;;;;;22.42;12.82;;;;;;;11.47;97.25;95367.44;5024599;28;20037;-75
2021/09/09 02:58:58;;;;;;;21.65;13.13;;;;;;;11.49;97.37;95365.28;5026850;28;20045;-74
2021/09/09 03:01:25;;;;;;;20.23;12.02;;;;;;;11.52;96.69;95370.03;5019959;28;20044;-74
2021/09/09 03:03:51;;;;;;;22.50;12.52;;;;;;;11.44;96.59;95368.00;5024244;28;20120;-74
2021/09/09 03:06:16;;;;;;;21.15;12.30;;;;;;;11.43;97.68;95366.41;5032814;28;20143;-75
2021/09/09 03:08:42;;;;;;;23.65;12.77;;;;;;;11.43;97.38;95366.41;5033528;28;20081;-73
2021/09/09 03:11:07;;;;;;;21.10;11.88;;;;;;;11.36;97.63;95363.31;5027257;28;20514;-73
2021/09/09 03:13:33;;;;;;;20.35;12.32;;;;;;;11.30;97.56;95367.06;5028105;28;20116;-74
2021/09/09 03:15:58;;;;;;;22.20;13.15;;;;;;;11.27;97.96;95369.19;5028363;28;20037;-75
2021/09/09 03:18:24;;;;;;;20.42;11.80;;;;;;;11.36;96.49;95360.69;5024846;28;20049;-75
2021/09/09 03:20:49;;;;;;;18.33;11.23;;;;;;;11.35;96.95;95353.84;4991422;28;20045;-74
2021/09/09 03:23:15;;;;;;;18.80;11.25;;;;;;;11.45;96.57;95359.03;5012123;28;20547;-74
2021/09/09 03:25:40;;;;;;;21.42;11.98;;;;;;;11.38;95.71;95353.31;5012488;28;20072;-74
2021/09/09 03:28:06;;;;;;;19.75;12.65;;;;;;;11.24;96.98;95351.28;5014314;28;20511;-75
2021/09/09 03:30:31;;;;;;;18.67;12.43;;;;;;;11.30;97.78;95361.81;5031046;28;20435;-75
2021/09/09 03:32:57;;;;;;;19.13;12.13;;;;;;;11.29;97.14;95354.94;5026102;28;20045;-75
2021/09/09 03:35:23;;;;;;;22.27;12.52;;;;;;;11.36;96.08;95355.41;5032070;28;20049;-74
2021/09/09 03:37:48;;;;;;;18.83;11.73;;;;;;;11.37;95.76;95352.50;5031933;28;20487;-75
2021/09/09 03:40:14;;;;;;;21.83;11.75;;;;;;;11.22;96.56;95356.06;5019218;28;20046;-75
2021/09/09 03:42:39;;;;;;;22.67;12.32;;;;;;;11.18;97.74;95356.91;5012199;28;20046;-74
2021/09/09 03:45:05;;;;;;;21.33;12.45;;;;;;;11.26;96.50;95357.09;5011884;28;20136;-74
2021/09/09 03:47:31;;;;;;;23.13;11.98;;;;;;;11.23;96.20;95344.47;5019711;28;20048;-73
2021/09/09 03:49:57;;;;;;;22.55;13.10;;;;;;;11.29;97.56;95350.47;5001534;28;20042;-74
2021/09/09 03:52:24;;;;;;;21.90;12.32;;;;;;;11.33;96.92;95350.72;5011808;28;20109;-75
2021/09/09 03:54:49;;;;;;;21.38;12.00;;;;;;;11.30;96.78;95346.00;5011734;28;20046;-73
2021/09/09 03:57:15;;;;;;;20.63;12.25;;;;;;;11.14;97.77;95354.03;5014635;28;20033;-74
2021/09/09 03:59:41;;;;;;;19.95;12.07;;;;;;;11.04;97.70;95354.09;5031298;28;20427;-74
2021/09/09 04:02:06;;;;;;;22.23;12.02;;;;;;;11.06;98.14;95351.97;5026332;28;20049;-74
2021/09/09 04:04:33;;;;;;;19.88;12.25;;;;;;;11.00;98.02;95358.34;5031154;28;20395;-75
2021/09/09 04:06:58;;;;;;;20.70;12.20;;;;;;;11.06;97.78;95359.88;5031351;28;20042;-74
2021/09/09 04:09:24;;;;;;;21.20;12.40;;;;;;;11.16;97.55;95351.91;5030923;28;20553;-74
2021/09/09 04:11:50;;;;;;;19.67;11.93;;;;;;;11.14;97.67;95348.75;5022920;28;20084;-74
2021/09/09 04:14:15;;;;;;;20.40;12.30;;;;;;;11.07;97.76;95353.56;5011406;28;20423;-76
2021/09/09 04:16:42;;;;;;;19.80;12.38;;;;;;;10.97;97.84;95353.63;5011432;28;20042;-76
2021/09/09 04:19:07;;;;;;;20.00;11.75;;;;;;;11.23;97.02;95357.66;5023805;28;20049;-75
2021/09/09 04:21:33;;;;;;;20.73;11.88;;;;;;;11.19;96.95;95356.63;5020209;28;20121;-76
2021/09/09 04:23:58;;;;;;;21.60;12.05;;;;;;;11.21;96.82;95359.75;5013847;28;20507;-76
2021/09/09 04:26:24;;;;;;;20.33;11.88;;;;;;;11.00;97.64;95353.09;5011707;28;20046;-75
2021/09/09 04:28:50;;;;;;;19.33;12.13;;;;;;;10.88;97.99;95346.31;5018816;28;20495;-76
2021/09/09 04:31:15;;;;;;;22.65;12.30;;;;;;;10.96;97.33;95352.88;5029965;28;20049;-76
2021/09/09 04:33:41;;;;;;;16.25;10.95;;;;;;;11.05;96.66;95355.69;5010153;28;20511;-75
2021/09/09 04:36:07;;;;;;;19.15;12.20;;;;;;;10.99;96.43;95356.78;5011672;28;20042;-75
2021/09/09 04:38:32;;;;;;;19.50;10.90;;;;;;;11.08;96.23;95349.88;5013382;28;20068;-75
2021/09/09 04:40:58;;;;;;;21.23;11.82;;;;;;;10.89;96.52;95357.66;5021432;28;20034;-75
2021/09/09 04:43:24;;;;;;;19.80;11.77;;;;;;;10.92;97.24;95360.50;5011149;28;20470;-76
2021/09/09 04:45:49;;;;;;;18.27;10.95;;;;;;;10.92;96.59;95363.16;5011329;28;20522;-75
2021/09/09 04:48:15;;;;;;;19.48;11.52;;;;;;;10.77;97.39;95368.50;5021901;28;20524;-76
2021/09/09 04:50:41;;;;;;;20.15;11.85;;;;;;;11.02;96.10;95372.00;5011051;28;20049;-75
2021/09/09 04:53:06;;;;;;;20.00;11.43;;;;;;;10.89;97.08;95368.97;4993829;28;20046;-75
2021/09/09 04:55:32;;;;;;;23.25;12.90;;;;;;;10.75;97.86;95368.00;5011173;28;20571;-76
2021/09/09 04:57:57;;;;;;;25.65;13.52;;;;;;;10.80;99.19;95365.31;5001132;28;20052;-75
2021/09/09 05:00:23;;;;;;;21.77;12.35;;;;;;;10.87;97.41;95371.06;5030733;28;20041;-75
2021/09/09 05:02:48;;;;;;;20.20;12.02;;;;;;;10.81;97.74;95368.75;5004147;28;20506;-76
2021/09/09 05:05:14;;;;;;;20.27;12.30;;;;;;;10.70;98.38;95363.56;5030818;28;20414;-76
2021/09/09 05:07:40;;;;;;;22.20;12.30;;;;;;;10.72;98.24;95364.06;5030476;28;20052;-75
2021/09/09 05:10:06;;;;;;;21.10;12.13;;;;;;;10.83;97.84;95364.81;5030435;28;20111;-76
2021/09/09 05:12:31;;;;;;;21.08;11.50;;;;;;;10.96;97.72;95362.59;5016200;28;20089;-75
2021/09/09 05:14:57;;;;;;;20.65;11.95;;;;;;;11.02;97.51;95372.00;5010323;28;20046;-76
2021/09/09 05:17:22;;;;;;;18.65;11.35;;;;;;;10.94;96.80;95364.72;5010434;28;20165;-76
2021/09/09 05:19:48;;;;;;;18.38;11.65;;;;;;;10.89;97.58;95363.69;5016364;28;20054;-75
2021/09/09 05:22:14;;;;;;;18.38;11.57;;;;;;;10.94;97.40;95360.22;5010179;28;20121;-75
2021/09/09 05:24:39;;;;;;;22.70;12.27;;;;;;;10.81;97.93;95360.88;5010154;28;20057;-76
2021/09/09 05:27:05;;;;;;;19.58;11.68;;;;;;;10.82;98.64;95365.84;5010552;28;20057;-76
2021/09/09 05:29:30;;;;;;;21.45;11.88;;;;;;;10.90;97.87;95367.09;5022132;28;20053;-75
2021/09/09 05:31:56;;;;;;;19.77;11.25;;;;;;;10.97;97.91;95366.81;5014019;28;20577;-75
2021/09/09 05:34:21;;;;;;;20.42;12.30;;;;;;;11.04;97.62;95364.63;5010272;28;20038;-76
2021/09/09 05:36:47;;;;;;;21.00;11.77;;;;;;;11.05;98.18;95367.00;5010259;28;20050;-75
2021/09/09 05:39:12;;;;;;;17.90;11.38;;;;;;;11.24;97.53;95369.75;5016745;28;20061;-75
2021/09/09 05:41:38;;;;;;;18.45;10.90;;;;;;;11.31;97.25;95361.53;5029410;28;20033;-76
2021/09/09 05:44:04;;;;;;;19.60;12.15;;;;;;;11.48;97.31;95369.00;5029145;28;20099;-76
2021/09/09 05:46:29;;;;;;;26.23;12.10;;;;;;;11.53;97.11;95370.81;5028515;28;20522;-76
2021/09/09 05:48:55;;;;;;;20.42;11.50;;;;;;;11.41;97.95;95373.81;5028031;28;20053;-76
2021/09/09 05:51:20;;;;;;;19.35;11.32;;;;;;;11.45;98.25;95380.13;5029100;28;20060;-75
2021/09/09 05:53:46;;;;;;;19.63;12.18;;;;;;;11.45;98.68;95372.22;5014061;28;20099;-76
2021/09/09 05:56:11;;;;;;;24.23;11.90;;;;;;;11.52;97.85;95380.56;5010008;28;20996;-76
2021/09/09 05:58:38;;;;;;;18.60;12.00;;;;;;;11.63;98.21;95381.25;5021716;28;20043;-76
2021/09/09 06:01:04;;;;;;;20.77;11.50;;;;;;;11.70;98.14;95386.19;5021702;28;20037;-76
2021/09/09 06:03:31;;;;;;;22.35;13.20;;;;;;;11.76;98.04;95379.81;5027182;28;20045;-76
2021/09/09 06:06:04;;;;;;;21.27;12.00;;;;;;;11.76;98.12;95374.53;5029297;28;20051;-76
2021/09/09 06:08:34;;;;;;;26.85;12.60;;;;;;;11.75;97.99;95370.31;5025601;28;20116;-76
2021/09/09 06:11:00;;;;;;;21.13;11.48;;;;;;;11.86;98.18;95379.69;5009149;28;20065;-76
2021/09/09 06:13:26;;;;;;;20.90;11.68;;;;;;;11.95;98.11;95383.34;5009213;28;20492;-75
2021/09/09 06:15:51;;;;;;;28.77;12.35;;;;;;;12.01;98.17;95385.91;5009570;28;20476;-76
2021/09/09 06:18:17;;;;;;;24.75;11.55;;;;;;;12.03;98.03;95383.78;5009416;28;20033;-75
2021/09/09 06:20:42;;;;;;;22.33;11.50;;;;;;;12.10;97.62;95378.94;5021960;28;20111;-75
2021/09/09 06:23:08;;;;;;;21.75;11.68;;;;;;;12.22;98.80;95381.94;5018578;28;20041;-75
2021/09/09 06:25:33;;;;;;;24.45;12.68;;;;;;;12.26;98.83;95377.69;5009311;28;20034;-75
2021/09/09 06:27:59;;;;;;;25.40;12.20;;;;;;;12.42;97.97;95375.63;5009138;28;20034;-76
2021/09/09 06:30:24;;;;;;;21.50;12.70;;;;;;;12.53;98.63;95371.03;5019138;28;20148;-76
2021/09/09 06:32:50;;;;;;;21.63;12.75;;;;;;;12.86;98.41;95376.38;5016369;28;20051;-76
2021/09/09 06:35:15;;;;;;;21.45;13.02;;;;;;;12.85;98.13;95380.06;5028893;28;20049;-75
2021/09/09 06:37:41;;;;;;;20.52;12.45;;;;;;;12.84;97.39;95375.84;5028834;28;20045;-75
2021/09/09 06:40:08;;;;;;;20.73;11.77;;;;;;;12.88;98.27;95379.50;5022206;28;20667;-76
2021/09/09 06:42:33;;;;;;;19.20;12.20;;;;;;;12.95;98.67;95385.22;5028722;28;20069;-76
2021/09/09 06:44:59;;;;;;;22.63;12.65;;;;;;;13.03;98.40;95385.63;5028528;28;20503;-76
2021/09/09 06:47:25;;;;;;;23.23;12.20;;;;;;;13.11;99.04;95384.97;5021068;28;20426;-76
2021/09/09 06:49:50;;;;;;;22.42;12.55;;;;;;;13.18;99.38;95390.69;5028139;28;20557;-75
2021/09/09 06:52:16;;;;;;;22.30;12.43;;;;;;;13.21;99.23;95389.31;5025480;28;20578;-76
2021/09/09 06:54:42;;;;;;;24.88;13.80;;;;;;;13.29;100.00;95392.09;5008779;28;20064;-76
2021/09/09 06:57:08;;;;;;;22.80;12.63;;;;;;;13.38;99.78;95391.47;5008218;28;20053;-74
2021/09/09 06:59:33;;;;;;;19.30;12.52;;;;;;;13.71;97.01;95402.03;5025195;28;20038;-74
2021/09/09 07:01:59;;;;;;;23.10;12.27;;;;;;;13.92;95.56;95397.94;5013567;28;20042;-74
2021/09/09 07:04:24;;;;;;;19.65;11.32;;;;;;;14.25;92.86;95400.47;5028033;28;20045;-75
2021/09/09 07:06:50;;;;;;;23.73;12.90;;;;;;;14.21;95.13;95402.16;5028287;28;20046;-74
2021/09/09 07:09:16;;;;;;;19.23;11.30;;;;;;;14.54;91.52;95391.44;5026744;28;20045;-74
2021/09/09 07:11:41;;;;;;;18.13;11.32;;;;;;;14.50;92.60;95393.09;5027528;28;20503;-73
2021/09/09 07:14:07;;;;;;;22.27;11.65;;;;;;;14.50;94.08;95391.22;5019715;28;20041;-73
2021/09/09 07:16:32;;;;;;;21.92;11.80;;;;;;;14.58;92.30;95397.69;5024556;28;20128;-75
2021/09/09 07:18:58;;;;;;;18.98;11.52;;;;;;;14.62;94.47;95400.56;5017692;28;20103;-74
2021/09/09 07:21:23;;;;;;;18.02;11.23;;;;;;;14.68;93.21;95402.81;5025254;28;20056;-75
2021/09/09 07:23:49;;;;;;;16.55;10.77;;;;;;;15.34;87.48;95402.41;4991584;28;20053;-75
2021/09/09 07:26:15;;;;;;;16.33;9.95;;;;;;;15.96;83.41;95395.56;5025382;28;20477;-75
2021/09/09 07:28:40;;;;;;;17.23;11.15;;;;;;;15.97;84.52;95397.13;5020747;28;20046;-74
2021/09/09 07:31:06;;;;;;;14.77;10.15;;;;;;;16.09;84.01;95399.97;5018952;28;20062;-72
2021/09/09 07:33:31;;;;;;;15.38;10.57;;;;;;;16.02;87.17;95399.66;5004470;28;20427;-72
2021/09/09 07:35:57;;;;;;;15.75;10.27;;;;;;;16.26;84.73;95399.25;5027541;28;20057;-74
2021/09/09 07:38:22;;;;;;;17.88;10.27;;;;;;;16.71;81.01;95392.94;5022421;28;20050;-73
2021/09/09 07:40:48;;;;;;;15.43;9.88;;;;;;;16.94;79.79;95395.50;5009804;28;20061;-73
2021/09/09 07:43:13;;;;;;;19.23;9.73;;;;;;;17.28;78.43;95404.53;5013925;28;20477;-74
2021/09/09 07:45:39;;;;;;;16.77;10.07;;;;;;;17.39;76.43;95395.13;5013145;28;20062;-75
2021/09/09 07:48:04;;;;;;;15.70;10.02;;;;;;;17.44;79.93;95407.47;5015463;28;20503;-75
2021/09/09 07:50:30;;;;;;;15.30;10.10;;;;;;;17.36;78.64;95406.41;5022707;28;20089;-75
2021/09/09 07:52:57;;;;;;;17.20;10.15;;;;;;;17.16;79.59;95407.06;5002083;28;20519;-74
2021/09/09 07:55:23;;;;;;;13.15;9.30;;;;;;;17.02;82.77;95402.66;5011788;28;20084;-74
2021/09/09 07:57:49;;;;;;;12.85;9.38;;;;;;;17.18;82.31;95412.84;5020820;28;20057;-74
2021/09/09 08:00:15;;;;;;;15.95;9.65;;;;;;;17.13;81.64;95403.91;5023872;28;20177;-75
2021/09/09 08:02:41;;;;;;;13.93;9.40;;;;;;;17.44;81.24;95412.81;5017531;28;20073;-72
2021/09/09 08:05:07;;;;;;;13.35;9.60;;;;;;;17.46;80.52;95408.75;5016449;28;20045;-72
2021/09/09 08:07:44;;;;;;;13.25;9.43;;;;;;;18.15;76.16;95417.66;5029140;28;20045;-75
2021/09/09 08:10:13;;;;;;;17.33;9.93;;;;;;;18.32;75.71;95414.13;5030179;28;20037;-74
2021/09/09 08:12:39;;;;;;;17.63;9.20;;;;;;;18.85;72.38;95417.28;5031098;28;20431;-74
2021/09/09 08:15:06;;;;;;;16.17;9.48;;;;;;;19.24;68.28;95419.03;5011217;28;20048;-74
2021/09/09 08:17:32;;;;;;;13.00;9.02;;;;;;;19.30;66.99;95418.53;5011744;28;20836;-75
2021/09/09 08:19:58;;;;;;;14.70;8.90;;;;;;;19.42;67.16;95420.44;5015138;28;20045;-73
2021/09/09 08:22:24;;;;;;;16.63;8.73;;;;;;;19.66;68.02;95418.97;5021960;28;20046;-74
2021/09/09 08:24:49;;;;;;;13.57;8.25;;;;;;;19.87;65.35;95421.63;5011218;28;20042;-74
2021/09/09 08:27:15;;;;;;;14.50;8.90;;;;;;;20.00;65.71;95427.78;5014365;28;20053;-75
2021/09/09 08:29:40;;;;;;;12.32;8.73;;;;;;;20.10;64.32;95427.34;5029720;28;20056;-75
2021/09/09 08:32:06;;;;;;;12.25;8.13;;;;;;;20.18;65.16;95429.09;5029862;28;20396;-76
2021/09/09 08:34:31;;;;;;;13.13;9.15;;;;;;;20.12;67.06;95435.03;5031642;28;20072;-76
2021/09/09 08:36:57;;;;;;;11.55;8.50;;;;;;;20.20;64.83;95432.25;5030814;28;20056;-74
2021/09/09 08:39:22;;;;;;;13.15;8.32;;;;;;;20.55;61.83;95431.78;5025995;28;20054;-76
2021/09/09 08:41:48;;;;;;;12.20;7.93;;;;;;;20.62;60.80;95431.25;5010786;28;20053;-75
2021/09/09 08:44:13;;;;;;;14.27;8.98;;;;;;;20.49;63.15;95427.78;5014717;28;20060;-76
2021/09/09 08:46:41;;;;;;;10.35;7.72;;;;;;;20.77;59.00;95432.47;5030804;28;20100;-76
2021/09/09 08:49:06;;;;;;;11.45;8.07;;;;;;;20.93;58.21;95435.22;5021986;28;20491;-75
2021/09/09 08:51:32;;;;;;;11.73;8.00;;;;;;;20.92;61.04;95429.09;5012671;28;20056;-75
2021/09/09 08:53:59;;;;;;;16.58;8.15;;;;;;;21.03;59.16;95428.63;5013765;28;20049;-74
2021/09/09 08:56:24;;;;;;;11.88;7.70;;;;;;;21.06;61.86;95430.63;5010915;28;20042;-76
2021/09/09 08:58:50;;;;;;;12.52;7.93;;;;;;;21.14;59.79;95428.94;5010655;28;20045;-75
2021/09/09 09:01:18;;;;;;;12.48;7.95;;;;;;;21.34;56.79;95432.56;5011348;28;20052;-76
2021/09/09 09:03:55;;;;;;;12.18;7.88;;;;;;;21.04;60.51;95436.31;5028107;28;20050;-75
2021/09/09 09:06:26;;;;;;;16.15;7.93;;;;;;;21.29;58.74;95431.69;5028844;28;20041;-76
2021/09/09 09:08:56;;;;;;;9.68;7.45;;;;;;;21.49;56.36;95434.50;5026579;28;20038;-75
2021/09/09 09:11:29;;;;;;;11.50;7.95;;;;;;;21.70;55.42;95433.56;5027271;28;20045;-75
2021/09/09 09:13:55;;;;;;;13.85;7.93;;;;;;;21.52;57.44;95439.22;5025603;28;20050;-76
2021/09/09 09:16:22;;;;;;;13.77;7.75;;;;;;;21.87;54.27;95440.50;5023698;28;20052;-75
2021/09/09 09:18:48;;;;;;;11.10;7.90;;;;;;;21.97;54.42;95442.66;5025230;28;20043;-74
2021/09/09 09:21:15;;;;;;;14.80;8.02;;;;;;;21.94;55.39;95444.13;5026415;28;20046;-76
2021/09/09 09:23:53;;;;;;;11.63;7.65;;;;;;;21.75;55.90;95431.41;5021449;28;20041;-76
2021/09/09 09:26:19;;;;;;;11.63;7.63;;;;;;;21.95;56.99;95437.66;5027785;28;20045;-75
2021/09/09 09:28:50;;;;;;;10.90;7.70;;;;;;;21.77;57.14;95436.41;5010113;28;20462;-75
2021/09/09 09:31:28;;;;;;;11.50;7.78;;;;;;;21.95;55.91;95434.97;5013313;28;20388;-74
2021/09/09 09:34:01;;;;;;;11.80;7.68;;;;;;;22.18;54.25;95437.03;5026738;28;20116;-75
2021/09/09 09:36:27;;;;;;;10.65;7.43;;;;;;;22.26;54.28;95438.78;5026993;28;20083;-73
2021/09/09 09:38:55;;;;;;;11.88;8.00;;;;;;;22.30;54.32;95436.97;5027307;28;20537;-75
2021/09/09 09:41:24;;;;;;;12.93;7.40;;;;;;;22.40;55.36;95432.25;5015695;28;20037;-74
2021/09/09 09:43:55;;;;;;;11.52;7.45;;;;;;;22.57;53.18;95431.06;5020871;28;20049;-73
2021/09/09 09:46:26;;;;;;;11.50;7.60;;;;;;;22.54;52.96;95432.56;5020407;28;20045;-73
2021/09/09 09:48:52;;;;;;;12.20;7.80;;;;;;;22.52;53.83;95434.81;5015623;28;20061;-74
2021/09/09 09:51:38;;;;;;;11.73;7.43;;;;;;;22.53;55.50;95428.31;5026997;28;20507;-72
2021/09/09 09:54:09;;;;;;;11.13;7.55;;;;;;;22.88;54.30;95438.28;5012306;28;20046;-74
2021/09/09 09:56:35;;;;;;;12.57;7.43;;;;;;;23.16;55.06;95440.06;5026129;28;20474;-76
2021/09/09 09:59:01;;;;;;;12.45;7.38;;;;;;;23.40;51.45;95432.84;5029674;28;20046;-74
2021/09/09 10:01:29;;;;;;;9.98;7.25;;;;;;;23.66;50.28;95429.50;5026950;28;20041;-74
2021/09/09 10:04:06;;;;;;;11.18;7.40;;;;;;;23.88;51.26;95430.72;5019047;28;20052;-74
2021/09/09 10:06:33;;;;;;;11.77;7.78;;;;;;;23.91;50.00;95424.63;5027078;28;20041;-73
2021/09/09 10:09:00;;;;;;;11.05;7.63;;;;;;;24.15;51.56;95428.06;5029449;28;20041;-73
2021/09/09 10:11:26;;;;;;;9.57;6.97;;;;;;;24.39;50.55;95433.09;5027070;28;20179;-75
2021/09/09 10:13:54;;;;;;;14.23;7.60;;;;;;;24.37;50.23;95429.97;5011750;28;20045;-73
2021/09/09 10:16:23;;;;;;;10.38;6.93;;;;;;;24.64;48.03;95427.34;5028172;28;20041;-74
2021/09/09 10:18:49;;;;;;;13.85;7.63;;;;;;;25.11;46.16;95433.34;5028467;28;20124;-73
2021/09/09 10:21:44;;;;;;;10.20;7.30;;;;;;;25.03;47.28;95421.72;5020815;28;20037;-74
2021/09/09 10:24:19;;;;;;;14.35;7.18;;;;;;;25.64;47.14;95421.66;5013621;28;20041;-74
2021/09/09 10:26:46;;;;;;;13.40;7.43;;;;;;;25.65;46.69;95425.91;5020785;28;20037;-74
2021/09/09 10:29:48;;;;;;;15.85;7.55;;;;;;;26.21;45.28;95426.09;5028279;28;20051;-75
2021/09/09 10:32:29;;;;;;;9.85;7.07;;;;;;;26.50;44.13;95420.91;4970176;28;20127;-74
2021/09/09 10:35:19;;;;;;;8.85;7.13;;;;;;;26.65;43.14;95417.16;5028197;28;20045;-75
2021/09/09 10:38:07;;;;;;;11.48;7.55;;;;;;;26.74;44.68;95420.31;5029014;28;20046;-74
2021/09/09 10:40:39;;;;;;;10.68;7.18;;;;;;;27.05;42.27;95406.59;5024810;28;20052;-75
2021/09/09 10:43:28;;;;;;;12.32;7.50;;;;;;;26.97;42.96;95416.59;5027336;28;20038;-74
2021/09/09 10:46:08;;;;;;;11.25;7.35;;;;;;;27.51;43.59;95406.03;5015192;28;20069;-75
2021/09/09 10:48:34;;;;;;;12.55;7.30;;;;;;;28.26;40.79;95404.59;5026169;28;20042;-79
2021/09/09 10:50:59;;;;;;;11.75;7.38;;;;;;;27.88;42.55;95407.66;5021302;28;20080;-72
2021/09/09 10:53:56;;;;;;;8.35;6.85;;;;;;;28.35;43.06;95402.28;5028049;28;20136;-72
2021/09/09 10:56:27;;;;;;;12.55;7.38;;;;;;;28.33;40.81;95388.38;5023784;28;20049;-77
2021/09/09 10:59:12;;;;;;;11.43;7.05;;;;;;;28.48;41.55;95400.72;5006937;28;20513;-73
2021/09/09 11:01:43;;;;;;;14.43;7.05;;;;;;;28.25;40.71;95397.66;5010047;28;20056;-74
2021/09/09 11:04:25;;;;;;;9.00;7.25;;;;;;;27.51;42.53;95405.25;5021444;28;20121;-73
2021/09/09 11:06:50;;;;;;;10.05;7.15;;;;;;;28.73;39.88;95399.94;5028674;28;20042;-74
2021/09/09 11:09:16;;;;;;;8.77;7.03;;;;;;;28.89;39.07;95390.63;5028914;28;20056;-74
2021/09/09 11:11:46;;;;;;;10.02;6.63;;;;;;;29.64;37.39;95389.53;5015856;28;20064;-73
2021/09/09 11:14:13;;;;;;;11.32;6.90;;;;;;;29.16;40.25;95394.38;5026655;28;20045;-73
2021/09/09 11:16:40;;;;;;;9.27;6.45;;;;;;;28.31;38.81;95390.69;5027827;28;20038;-74
2021/09/09 11:19:08;;;;;;;9.75;6.60;;;;;;;29.29;37.54;95391.28;5026923;28;20693;-74